Startpagina
METAR-TAF:

METAR-TAF

Vliegvelden :

Vliegbasis Kleine-Brogel

Peer, België

breedte: 51-10N, lengte: 005-28E, hoogte: 55 m

Actueel weer

Dit bericht is 24 minuten geleden gemaakt, om 05:55 UTC
Wind 1 kt uit variabele richting
Temperatuur 14°C
Vochtigheid 88%
Druk 1006 hPa
Zicht: 3500 m
nevel

METAR: EBBL 190555Z AUTO VRB01KT 3500 BR SCT006/// BKN065/// 14/12 Q1006 YLO

Tijdstip: 08:19 (06:19 UTC)

Verwachting

Dit bericht is 14 uur en het 38 minuten geleden gemaakt, om 15:41 UTC
Verwachting geldig van 17 om 19 UTC tot 18 om 07 UTC
Wind 7 kt uit het oostnoordoosten
Zicht 10 km of meer
Gebroken wolken op 5000 ft
Wijzigt naar
van 18 om 04 UTC tot 18 om 06 UTC
Wind 2 kt uit variabele richting
Zicht: 3000 m
Gebroken wolken op 500 ft
nevel

TAF: EBBL 171541Z 1719/1807 06007KT 9999 BKN050 BECMG 1804/1806 VRB02KT 3000 BR BKN005

Waarnemingen en weersverwachtingen van meer dan 4000 vliegvelden (METAR en TAF).

De beschikbare stations zijn de gele en rode punten op de kaart.

Ga met uw muis naar het station om de naam te zien.

Klik dan om waarnemingen en weersverwachtingen te zien.

kaart wijzigen: klik op de groene knoppen met een zwart kruis om in te zoomen, op de groene knop met een streepje om uit te zoomen of op de groene pijlen voor aangrenzende kaarten.


METAR-TAF: